Time;durP1;ratioP1;P1;durP2;ratioP2;P2;SDS_P1;SDS_P2;PMS_P1;PMS_P2;Temp;Humidity;BMP_temperature;BMP_pressure;BME280_temperature;BME280_humidity;BME280_pressure;Samples;Min_cycle;Max_cycle;Signal;HPM_P1;HPM_P2
2022/06/30 00:01:54;;;;;;;9.93;6.70;;;;;;;19.03;81.92;100264.88;5112022;28;20495;-73
2022/06/30 00:04:58;;;;;;;12.60;6.40;;;;;;;18.79;83.15;100268.81;5111380;28;20518;-73
2022/06/30 00:08:02;;;;;;;6.65;5.95;;;;;;;18.75;83.17;100259.44;5112239;28;20046;-72
2022/06/30 00:11:08;;;;;;;8.70;6.32;;;;;;;18.80;82.74;100257.22;5112284;28;20420;-72
2022/06/30 00:14:11;;;;;;;11.52;6.40;;;;;;;18.73;82.89;100256.13;5112687;28;20128;-72
2022/06/30 00:17:16;;;;;;;7.95;6.28;;;;;;;18.56;83.38;100264.72;5111557;28;20111;-73
2022/06/30 00:20:20;;;;;;;9.82;6.50;;;;;;;18.59;83.65;100259.13;5111530;28;20472;-73
2022/06/30 00:23:24;;;;;;;9.90;6.80;;;;;;;18.63;83.44;100257.88;5111418;28;20455;-72
2022/06/30 00:26:28;;;;;;;7.82;6.43;;;;;;;18.58;83.71;100247.72;5110004;28;20065;-72
2022/06/30 00:29:32;;;;;;;7.38;6.10;;;;;;;18.54;83.44;100254.28;5110802;28;20113;-72
2022/06/30 00:32:35;;;;;;;8.57;6.38;;;;;;;18.45;84.10;100254.25;5111004;28;20070;-72
2022/06/30 00:35:40;;;;;;;9.32;6.20;;;;;;;18.63;82.73;100252.59;5111239;28;20108;-72
2022/06/30 00:38:45;;;;;;;11.52;6.35;;;;;;;18.49;83.17;100256.47;5111485;28;20129;-72
2022/06/30 00:41:49;;;;;;;7.45;6.00;;;;;;;18.25;84.09;100251.59;5110228;28;20046;-72
2022/06/30 00:44:54;;;;;;;10.95;6.82;;;;;;;18.22;83.86;100257.16;5110121;28;20107;-72
2022/06/30 00:47:59;;;;;;;10.27;6.43;;;;;;;18.20;83.94;100251.16;5089000;28;20093;-72
2022/06/30 00:51:05;;;;;;;16.52;6.60;;;;;;;18.35;83.15;100256.91;5090907;28;20051;-72
2022/06/30 00:54:10;;;;;;;9.75;7.10;;;;;;;18.17;83.54;100264.66;5091291;28;20188;-73
2022/06/30 00:57:16;;;;;;;7.38;6.30;;;;;;;18.04;83.79;100262.25;5090883;28;20562;-72
2022/06/30 01:00:21;;;;;;;7.55;5.78;;;;;;;18.03;83.94;100257.09;5090590;28;20051;-72
2022/06/30 01:03:25;;;;;;;10.38;6.05;;;;;;;17.97;84.31;100255.81;5090748;28;20620;-72
2022/06/30 01:06:29;;;;;;;7.90;6.25;;;;;;;17.97;84.32;100245.25;5089183;28;20101;-72
2022/06/30 01:12:54;;;;;;;7.85;6.00;;;;;;;17.89;84.43;100240.59;5089103;28;20784;-72
2022/06/30 01:15:57;;;;;;;8.70;6.25;;;;;;;17.88;84.02;100241.59;5095512;28;20126;-72
2022/06/30 01:19:00;;;;;;;9.13;6.00;;;;;;;17.84;84.00;100249.94;5110005;28;20074;-72
2022/06/30 01:22:04;;;;;;;7.10;6.15;;;;;;;17.86;83.70;100242.69;5109258;28;20104;-72
2022/06/30 01:25:09;;;;;;;9.70;6.07;;;;;;;17.82;83.76;100246.56;5109847;28;20035;-72
2022/06/30 01:28:12;;;;;;;9.23;6.60;;;;;;;17.79;84.18;100247.66;5109853;28;20112;-71
2022/06/30 01:31:15;;;;;;;8.38;5.85;;;;;;;17.84;84.04;100249.94;5109768;28;20047;-71
2022/06/30 01:34:19;;;;;;;11.68;6.70;;;;;;;17.82;84.04;100252.69;5108519;28;20124;-71
2022/06/30 01:37:25;;;;;;;12.07;6.38;;;;;;;17.69;83.95;100254.69;5109145;28;20104;-71
2022/06/30 01:40:34;;;;;;;19.70;6.07;;;;;;;17.73;83.58;100257.91;5108766;28;20058;-71
2022/06/30 01:43:37;;;;;;;6.75;6.05;;;;;;;17.72;83.80;100262.38;5108441;28;20046;-72
2022/06/30 01:46:48;;;;;;;10.02;6.00;;;;;;;17.85;83.59;100257.72;5088251;28;20043;-73
2022/06/30 01:49:51;;;;;;;12.63;7.45;;;;;;;17.83;83.39;100258.81;5088233;28;20066;-72
2022/06/30 01:52:55;;;;;;;13.65;6.75;;;;;;;17.78;83.77;100261.88;5094757;28;20184;-73
2022/06/30 01:55:58;;;;;;;7.82;7.03;;;;;;;17.72;83.93;100254.44;5109337;28;20527;-72
2022/06/30 01:59:02;;;;;;;7.30;6.32;;;;;;;17.79;84.10;100257.41;5108618;28;20485;-72
2022/06/30 02:02:05;;;;;;;7.75;6.38;;;;;;;18.04;83.10;100256.13;5108664;28;20255;-72
2022/06/30 02:05:10;;;;;;;10.80;6.75;;;;;;;17.79;83.47;100260.91;5108360;28;20566;-72
2022/06/30 02:08:13;;;;;;;10.93;6.75;;;;;;;17.74;83.94;100257.78;5108244;28;20120;-72
2022/06/30 02:11:17;;;;;;;13.20;7.07;;;;;;;17.69;84.13;100262.63;5108097;28;20089;-72
2022/06/30 02:14:20;;;;;;;9.27;6.03;;;;;;;17.66;84.08;100268.19;5108721;28;20078;-72
2022/06/30 02:17:24;;;;;;;11.13;7.30;;;;;;;17.64;84.21;100262.19;5068422;28;20097;-72
2022/06/30 02:20:27;;;;;;;11.15;6.95;;;;;;;17.62;84.56;100261.50;5067685;28;20074;-72
2022/06/30 02:23:30;;;;;;;10.18;7.38;;;;;;;17.57;84.84;100268.97;5068632;28;20043;-72
2022/06/30 02:26:34;;;;;;;11.70;7.68;;;;;;;17.60;85.14;100260.78;5068349;28;20093;-71
2022/06/30 02:29:38;;;;;;;10.93;8.85;;;;;;;17.52;85.80;100265.91;5068502;28;20075;-72
2022/06/30 02:32:41;;;;;;;13.20;8.35;;;;;;;17.59;85.83;100262.59;5069623;28;20083;-71
2022/06/30 02:35:44;;;;;;;10.50;7.65;;;;;;;17.65;85.81;100262.06;5069590;28;20047;-71
2022/06/30 02:38:48;;;;;;;9.65;7.63;;;;;;;17.88;84.93;100259.25;5068877;28;20071;-71
2022/06/30 02:41:51;;;;;;;10.13;9.02;;;;;;;17.91;84.68;100256.34;5067668;28;20052;-71
2022/06/30 02:44:56;;;;;;;10.35;9.10;;;;;;;17.86;84.89;100253.25;5068543;28;20069;-73
2022/06/30 02:47:59;;;;;;;11.93;9.30;;;;;;;17.69;85.28;100251.22;5068192;28;20040;-72
2022/06/30 02:51:03;;;;;;;12.27;8.32;;;;;;;17.62;85.57;100248.28;5069230;28;20474;-71
2022/06/30 02:54:06;;;;;;;13.05;9.50;;;;;;;17.54;86.31;100243.63;5069006;28;20090;-72
2022/06/30 02:57:10;;;;;;;15.38;9.23;;;;;;;17.43;87.27;100247.19;5067657;28;20040;-72
2022/06/30 03:00:13;;;;;;;13.25;9.38;;;;;;;17.53;87.00;100246.41;5067822;28;20046;-74
2022/06/30 03:03:16;;;;;;;13.68;10.55;;;;;;;17.38;87.92;100249.38;5068268;28;20043;-73
2022/06/30 03:06:20;;;;;;;12.70;9.57;;;;;;;17.39;87.92;100245.81;5068084;28;20044;-74
2022/06/30 03:09:24;;;;;;;10.35;9.45;;;;;;;17.53;86.81;100244.59;5072550;28;20048;-75
2022/06/30 03:12:28;;;;;;;13.25;9.02;;;;;;;17.40;87.33;100258.03;5052841;28;20469;-70
2022/06/30 03:15:31;;;;;;;9.80;8.90;;;;;;;17.52;86.25;100250.03;5063264;28;20104;-74
2022/06/30 03:18:35;;;;;;;9.40;8.52;;;;;;;17.46;85.91;100253.22;5092384;28;20100;-75
2022/06/30 03:21:39;;;;;;;9.32;8.43;;;;;;;17.54;86.18;100254.19;5091597;28;20528;-75
2022/06/30 03:24:42;;;;;;;12.55;10.40;;;;;;;17.66;86.25;100257.59;5098885;28;20144;-76
2022/06/30 03:27:45;;;;;;;10.82;9.68;;;;;;;17.73;85.14;100253.47;5113052;28;20157;-76
2022/06/30 03:30:49;;;;;;;11.80;10.38;;;;;;;17.49;86.72;100260.88;5113325;28;20444;-76
2022/06/30 03:33:54;;;;;;;10.07;9.00;;;;;;;17.47;87.20;100262.81;5112772;28;20683;-76
2022/06/30 03:37:00;;;;;;;10.35;9.32;;;;;;;17.33;87.96;100258.69;5112478;28;20095;-76
2022/06/30 03:40:04;;;;;;;11.23;9.30;;;;;;;17.34;87.53;100266.47;5111514;28;20503;-76
2022/06/30 03:43:07;;;;;;;9.88;8.65;;;;;;;17.47;87.24;100271.56;5111800;28;20229;-76
2022/06/30 03:46:10;;;;;;;9.57;8.68;;;;;;;17.48;86.66;100262.66;5111580;28;20039;-77
2022/06/30 03:49:15;;;;;;;9.95;8.60;;;;;;;17.55;86.20;100262.97;5110900;28;20047;-76
2022/06/30 03:52:18;;;;;;;10.32;8.50;;;;;;;17.34;87.39;100261.19;5111466;28;20148;-75
2022/06/30 03:55:26;;;;;;;9.05;7.60;;;;;;;17.49;86.64;100260.88;5090766;28;20713;-76
2022/06/30 03:58:29;;;;;;;7.63;6.78;;;;;;;17.79;84.81;100263.53;5100615;28;20035;-75
2022/06/30 04:01:34;;;;;;;8.88;7.97;;;;;;;17.88;84.15;100256.63;5092478;28;20043;-76
2022/06/30 04:04:37;;;;;;;13.27;7.97;;;;;;;17.84;84.20;100256.06;5102843;28;20103;-76
2022/06/30 04:07:45;;;;;;;9.68;8.68;;;;;;;17.92;83.85;100254.53;5109798;28;20123;-76
2022/06/30 04:10:52;;;;;;;10.05;9.02;;;;;;;17.67;85.29;100253.97;5109870;28;20066;-76
2022/06/30 04:13:55;;;;;;;13.18;9.63;;;;;;;17.46;86.45;100256.69;5098490;28;20409;-76
2022/06/30 04:17:00;;;;;;;11.23;8.77;;;;;;;17.65;85.79;100255.94;5090661;28;20475;-75
2022/06/30 04:20:05;;;;;;;15.80;9.77;;;;;;;17.33;87.18;100253.41;5097269;28;20323;-75
2022/06/30 04:23:09;;;;;;;11.77;10.25;;;;;;;17.36;87.01;100251.34;5110253;28;20035;-75
2022/06/30 04:26:13;;;;;;;9.50;8.60;;;;;;;17.50;86.49;100247.50;5110352;28;20054;-75
2022/06/30 04:29:18;;;;;;;9.95;8.18;;;;;;;17.50;86.25;100246.69;5110441;28;20293;-75
2022/06/30 04:32:40;;;;;;;18.38;8.27;;;;;;;17.44;86.43;100243.59;5111024;28;20512;-76
2022/06/30 04:35:43;;;;;;;15.48;8.35;;;;;;;17.49;86.73;100243.22;5110129;28;20050;-75
2022/06/30 04:38:47;;;;;;;12.73;9.60;;;;;;;17.28;87.41;100239.75;5110330;28;20130;-75
2022/06/30 04:42:52;;;;;;;8.77;7.93;;;;;;;17.44;87.14;100238.28;5111090;28;20581;-76
2022/06/30 04:45:55;;;;;;;10.30;8.70;;;;;;;17.69;86.00;100245.94;5111160;28;20047;-75
2022/06/30 04:48:58;;;;;;;11.65;10.35;;;;;;;17.63;85.91;100242.84;5111859;28;20100;-75
2022/06/30 04:52:02;;;;;;;10.10;8.40;;;;;;;17.79;85.15;100234.44;5111017;28;20054;-75
2022/06/30 04:55:06;;;;;;;14.15;8.55;;;;;;;17.70;85.62;100226.44;5110940;28;20062;-75
2022/06/30 04:58:09;;;;;;;10.35;9.23;;;;;;;17.35;87.22;100228.50;5111161;28;20055;-75
2022/06/30 05:01:13;;;;;;;9.07;7.95;;;;;;;17.38;87.37;100233.53;5111195;28;20409;-75
2022/06/30 05:04:16;;;;;;;9.35;8.15;;;;;;;17.38;86.57;100228.25;5110459;28;20121;-74
2022/06/30 05:07:21;;;;;;;10.63;7.63;;;;;;;17.30;87.08;100233.38;5110851;28;20642;-76
2022/06/30 05:10:24;;;;;;;9.20;7.38;;;;;;;17.33;87.33;100227.81;5110217;28;20143;-76
2022/06/30 05:13:27;;;;;;;9.77;8.45;;;;;;;17.50;86.71;100228.19;5110777;28;20078;-76
2022/06/30 05:16:32;;;;;;;10.23;9.23;;;;;;;17.51;86.70;100232.47;5110257;28;20490;-77
2022/06/30 05:19:35;;;;;;;10.55;9.45;;;;;;;17.52;86.69;100223.59;5109624;28;20062;-76
2022/06/30 05:22:38;;;;;;;10.43;9.32;;;;;;;17.42;87.35;100224.41;5109965;28;20062;-76
2022/06/30 05:29:05;;;;;;;10.52;9.63;;;;;;;17.58;87.14;100213.34;5110283;28;20042;-76
2022/06/30 05:32:08;;;;;;;10.80;9.80;;;;;;;17.56;86.99;100225.00;5110636;28;20637;-75
2022/06/30 05:35:12;;;;;;;10.40;9.45;;;;;;;17.64;86.59;100238.38;5089988;28;20050;-75
2022/06/30 05:41:45;;;;;;;8.82;8.02;;;;;;;17.94;85.02;100223.50;5088799;28;20483;-75
2022/06/30 05:44:48;;;;;;;7.75;7.05;;;;;;;17.70;86.74;100222.00;5088918;28;20550;-74
2022/06/30 05:47:53;;;;;;;8.30;7.38;;;;;;;17.92;85.74;100217.50;5096588;28;20043;-74
2022/06/30 05:50:56;;;;;;;7.90;7.20;;;;;;;18.10;84.71;100214.06;5108815;28;20102;-74
2022/06/30 05:54:00;;;;;;;9.75;7.30;;;;;;;18.24;84.45;100212.84;5109976;28;20078;-75
2022/06/30 05:57:06;;;;;;;7.43;6.72;;;;;;;18.04;85.93;100217.25;5108754;28;20038;-76
2022/06/30 06:00:11;;;;;;;7.22;6.55;;;;;;;18.13;85.95;100218.28;5109860;28;20046;-74
2022/06/30 06:03:15;;;;;;;6.10;5.53;;;;;;;18.40;84.95;100214.13;5102531;28;20405;-74
2022/06/30 06:06:18;;;;;;;9.27;6.88;;;;;;;18.48;84.56;100215.09;5088535;28;20050;-72
2022/06/30 06:09:21;;;;;;;5.90;5.40;;;;;;;18.65;83.68;100213.56;5088384;28;20189;-71
2022/06/30 06:12:25;;;;;;;5.35;4.72;;;;;;;18.62;84.50;100213.84;5088543;28;20124;-70
2022/06/30 06:15:28;;;;;;;6.38;5.55;;;;;;;18.46;85.69;100214.41;5089255;28;20493;-71
2022/06/30 06:18:31;;;;;;;5.40;4.90;;;;;;;18.75;84.21;100209.13;5105363;28;20123;-70
2022/06/30 06:21:36;;;;;;;8.68;5.30;;;;;;;18.77;84.90;100217.78;5107194;28;20515;-70
2022/06/30 06:24:44;;;;;;;8.30;5.80;;;;;;;18.72;86.00;100212.06;5104106;28;20419;-70
2022/06/30 06:31:13;;;;;;;8.68;6.47;;;;;;;19.05;85.00;100209.94;5106770;28;20464;-70
2022/06/30 06:34:16;;;;;;;6.25;5.63;;;;;;;19.18;84.34;100210.47;5108047;28;20114;-72
2022/06/30 06:37:19;;;;;;;7.95;6.30;;;;;;;19.26;84.85;100207.09;5105720;28;20281;-72
2022/06/30 06:40:24;;;;;;;8.70;6.30;;;;;;;19.47;83.40;100199.78;5106759;28;20042;-71
2022/06/30 06:43:28;;;;;;;6.88;6.28;;;;;;;19.62;83.50;100197.50;5107614;28;20054;-71
2022/06/30 06:46:32;;;;;;;9.40;8.50;;;;;;;19.75;84.64;100199.84;5089264;28;20128;-72
2022/06/30 06:49:35;;;;;;;10.27;7.30;;;;;;;19.94;83.76;100196.22;5089181;28;20058;-73
2022/06/30 06:52:38;;;;;;;8.18;7.38;;;;;;;20.03;83.54;100192.66;5088479;28;20073;-73
2022/06/30 06:55:42;;;;;;;10.50;7.93;;;;;;;20.14;83.23;100189.81;5088255;28;20110;-72
2022/06/30 06:58:45;;;;;;;9.48;8.50;;;;;;;20.25;83.22;100187.94;5092470;28;20058;-71
2022/06/30 07:01:49;;;;;;;10.85;8.80;;;;;;;20.33;83.47;100191.50;5108625;28;20423;-69
2022/06/30 07:04:52;;;;;;;11.05;10.02;;;;;;;20.44;83.38;100188.59;5109190;28;20046;-69
2022/06/30 07:08:00;;;;;;;11.82;9.75;;;;;;;20.54;82.27;100187.72;5109026;28;20064;-71
2022/06/30 07:11:05;;;;;;;10.38;9.40;;;;;;;20.59;82.56;100191.59;5109548;28;20038;-71
2022/06/30 07:14:09;;;;;;;11.50;9.30;;;;;;;20.67;82.22;100194.31;5108123;28;20115;-71
2022/06/30 07:17:12;;;;;;;10.65;9.63;;;;;;;20.67;81.47;100193.47;5108473;28;20054;-71
2022/06/30 07:20:16;;;;;;;10.50;9.60;;;;;;;20.74;81.19;100188.38;5107624;28;20127;-71
2022/06/30 07:23:19;;;;;;;10.15;9.05;;;;;;;20.85;81.75;100190.81;5107833;28;20126;-72
2022/06/30 07:26:22;;;;;;;10.60;9.50;;;;;;;20.96;82.09;100184.41;5108543;28;20042;-72
2022/06/30 07:29:26;;;;;;;9.70;8.75;;;;;;;21.06;81.75;100188.66;5087927;28;20105;-73
2022/06/30 07:32:30;;;;;;;10.77;9.68;;;;;;;21.16;80.84;100187.72;5086880;28;20099;-74
2022/06/30 07:35:33;;;;;;;13.15;9.98;;;;;;;21.18;80.20;100181.22;5086878;28;20086;-73
2022/06/30 07:38:36;;;;;;;10.80;9.50;;;;;;;21.25;79.61;100182.28;5087490;28;20047;-74
2022/06/30 07:41:40;;;;;;;11.10;9.00;;;;;;;21.38;79.63;100181.88;5093558;28;20783;-73
2022/06/30 07:44:43;;;;;;;10.63;9.45;;;;;;;21.55;80.32;100169.47;5108480;28;20421;-71
2022/06/30 07:47:49;;;;;;;10.70;9.40;;;;;;;21.64;78.76;100170.38;5107923;28;20413;-70
2022/06/30 07:50:52;;;;;;;10.80;9.88;;;;;;;21.72;78.86;100178.34;5107649;28;20054;-69
2022/06/30 07:53:56;;;;;;;14.93;8.85;;;;;;;21.85;77.48;100173.41;5110256;28;20054;-69
2022/06/30 07:56:59;;;;;;;10.98;8.93;;;;;;;21.85;77.29;100177.91;5110239;28;20043;-70
2022/06/30 08:00:08;;;;;;;10.25;8.77;;;;;;;21.96;77.63;100177.63;5111635;28;20045;-69
2022/06/30 08:03:21;;;;;;;12.23;8.77;;;;;;;22.16;76.55;100180.84;5112025;28;20045;-69
2022/06/30 08:06:24;;;;;;;9.65;8.65;;;;;;;22.13;76.20;100181.16;5110946;28;20125;-71
2022/06/30 08:09:28;;;;;;;10.77;8.15;;;;;;;22.19;76.88;100170.69;5110174;28;20050;-72
2022/06/30 08:12:33;;;;;;;11.55;8.27;;;;;;;22.43;75.54;100171.72;5107075;28;20123;-68
2022/06/30 08:15:37;;;;;;;10.10;8.18;;;;;;;22.37;75.58;100162.56;5107466;28;20124;-68
2022/06/30 08:18:42;;;;;;;10.93;8.20;;;;;;;22.41;75.12;100163.91;5108972;28;20118;-71
2022/06/30 08:21:50;;;;;;;10.40;8.20;;;;;;;22.61;75.43;100160.91;5107583;28;20096;-69
2022/06/30 08:24:55;;;;;;;9.68;7.35;;;;;;;22.69;74.36;100156.41;5106035;28;20065;-68
2022/06/30 08:27:59;;;;;;;13.57;8.88;;;;;;;22.75;74.22;100152.25;5107309;28;20449;-69
2022/06/30 08:31:03;;;;;;;8.80;7.88;;;;;;;22.95;73.50;100153.56;5106883;28;20610;-68
2022/06/30 08:34:12;;;;;;;9.20;8.30;;;;;;;22.96;72.87;100144.56;5110353;28;20601;-68
2022/06/30 08:37:16;;;;;;;11.32;7.53;;;;;;;23.11;72.07;100143.88;5102033;28;20046;-77
2022/06/30 08:43:45;;;;;;;10.55;8.10;;;;;;;23.52;71.17;100136.56;5085589;28;20157;-68
2022/06/30 08:46:49;;;;;;;9.15;7.72;;;;;;;23.59;70.47;100131.38;5086318;28;20127;-68
2022/06/30 08:49:52;;;;;;;11.35;7.90;;;;;;;23.64;70.86;100129.00;5086705;28;20126;-68
2022/06/30 08:52:59;;;;;;;10.35;7.25;;;;;;;23.86;69.13;100130.06;5089507;28;20050;-68
2022/06/30 08:56:04;;;;;;;12.82;7.47;;;;;;;23.87;68.70;100124.56;5107971;28;20096;-67
2022/06/30 08:59:08;;;;;;;8.75;7.90;;;;;;;23.79;69.37;100119.28;5106762;28;20050;-68
2022/06/30 09:02:15;;;;;;;10.38;7.18;;;;;;;23.90;68.54;100129.56;5105510;28;20037;-68
2022/06/30 09:05:19;;;;;;;10.90;7.65;;;;;;;24.13;67.41;100124.22;5095885;28;20191;-68
2022/06/30 09:08:22;;;;;;;10.65;5.65;;;;;;;24.12;63.75;100121.72;5104166;28;20131;-68
2022/06/30 09:11:45;;;;;;;13.52;6.38;;;;;;;24.02;64.33;100121.13;5086106;28;20150;-68
2022/06/30 09:14:49;;;;;;;8.85;7.20;;;;;;;23.97;64.36;100111.00;5087181;28;20151;-68
2022/06/30 09:17:53;;;;;;;8.10;4.88;;;;;;;24.06;59.17;100112.59;5086838;28;20132;-67
2022/06/30 09:20:59;;;;;;;5.35;3.47;;;;;;;24.61;53.89;100108.00;5094469;28;20050;-68
2022/06/30 09:24:02;;;;;;;6.80;3.60;;;;;;;24.76;53.76;100098.16;5086967;28;20101;-68
2022/06/30 09:27:19;;;;;;;5.38;3.38;;;;;;;24.69;53.29;100096.38;5087164;28;20050;-68
2022/06/30 09:30:24;;;;;;;5.82;3.85;;;;;;;24.90;53.92;100093.00;5087084;28;20574;-68
2022/06/30 09:33:38;;;;;;;5.10;2.85;;;;;;;25.05;51.44;100093.84;5086768;28;20412;-68
2022/06/30 09:36:43;;;;;;;6.07;3.05;;;;;;;25.16;49.95;100090.72;5095824;28;20086;-68
2022/06/30 09:39:47;;;;;;;5.50;2.38;;;;;;;25.10;45.54;100094.09;5107662;28;20562;-68
2022/06/30 09:42:50;;;;;;;7.70;2.92;;;;;;;24.99;48.79;100090.06;5107129;28;20096;-67
2022/06/30 09:45:54;;;;;;;9.50;2.03;;;;;;;25.38;44.27;100080.94;5107318;28;20483;-67
2022/06/30 09:49:02;;;;;;;4.32;3.78;;;;;;;25.48;55.09;100086.81;5107246;28;20066;-67
2022/06/30 09:52:16;;;;;;;6.28;4.43;;;;;;;25.49;57.87;100083.13;5106390;28;20062;-68
2022/06/30 09:55:20;;;;;;;6.45;4.28;;;;;;;25.23;60.24;100088.97;5105936;28;20114;-68
2022/06/30 09:58:32;;;;;;;6.82;4.63;;;;;;;25.20;60.90;100078.63;5106484;28;20573;-67
2022/06/30 10:01:56;;;;;;;10.43;4.97;;;;;;;25.31;60.71;100079.19;5107159;28;20437;-68
2022/06/30 10:05:00;;;;;;;8.30;4.85;;;;;;;25.50;59.81;100084.78;5107655;28;20051;-69
2022/06/30 10:08:04;;;;;;;10.88;3.90;;;;;;;25.74;58.61;100091.63;5107612;28;20081;-69
2022/06/30 10:11:08;;;;;;;8.43;3.70;;;;;;;25.80;56.08;100082.00;5107296;28;20070;-68
2022/06/30 10:14:11;;;;;;;7.93;3.95;;;;;;;25.90;57.23;100079.06;5106454;28;20507;-68
2022/06/30 10:17:19;;;;;;;8.90;3.90;;;;;;;25.98;53.80;100076.25;5106936;28;20183;-68
2022/06/30 10:20:23;;;;;;;4.55;1.95;;;;;;;26.22;47.53;100066.97;5107316;28;20100;-68
2022/06/30 10:23:27;;;;;;;4.38;1.85;;;;;;;26.41;41.51;100063.63;5105466;28;20680;-68
2022/06/30 10:29:57;;;;;;;4.35;1.90;;;;;;;26.33;45.55;100062.97;5108415;28;20089;-68
2022/06/30 10:33:17;;;;;;;4.47;2.30;;;;;;;26.48;43.81;100061.03;5108963;28;20503;-68
2022/06/30 10:36:30;;;;;;;5.90;2.38;;;;;;;26.38;44.58;100055.16;5105855;28;20065;-68
2022/06/30 10:40:00;;;;;;;5.25;2.63;;;;;;;26.52;44.70;100062.31;5107219;28;20783;-68
2022/06/30 10:43:05;;;;;;;7.20;2.30;;;;;;;26.51;43.00;100059.81;5106573;28;20047;-67
2022/06/30 10:46:08;;;;;;;5.90;3.17;;;;;;;26.53;44.51;100055.91;5104461;28;20594;-67
2022/06/30 10:49:13;;;;;;;6.70;2.92;;;;;;;26.49;44.97;100057.34;5104155;28;20122;-67
2022/06/30 10:52:25;;;;;;;5.55;2.80;;;;;;;26.42;43.98;100046.53;5104968;28;20061;-67
2022/06/30 10:55:41;;;;;;;6.68;3.08;;;;;;;26.58;45.83;100058.00;5105885;28;20047;-68
2022/06/30 10:59:04;;;;;;;6.72;2.95;;;;;;;26.64;44.78;100050.03;5103327;28;20123;-68
2022/06/30 11:02:08;;;;;;;7.97;3.10;;;;;;;26.78;45.18;100048.25;5102634;28;20046;-68
2022/06/30 11:05:23;;;;;;;7.22;2.60;;;;;;;26.65;43.57;100053.53;5105805;28;20050;-68
2022/06/30 11:08:48;;;;;;;5.53;3.10;;;;;;;26.49;43.06;100041.25;5106882;28;20088;-68
2022/06/30 11:11:54;;;;;;;5.70;2.65;;;;;;;26.70;43.93;100043.03;5107202;28;20683;-72
2022/06/30 11:14:59;;;;;;;9.95;3.30;;;;;;;26.43;43.32;100048.19;5107545;28;20132;-70
2022/06/30 11:18:03;;;;;;;5.97;2.47;;;;;;;26.41;43.07;100038.69;5107292;28;20123;-67
2022/06/30 11:21:06;;;;;;;5.00;2.97;;;;;;;26.63;44.26;100037.63;5107061;28;20037;-63
2022/06/30 11:24:11;;;;;;;7.28;2.78;;;;;;;26.70;43.59;100034.16;5106902;28;20050;-64
2022/06/30 11:27:21;;;;;;;4.55;2.55;;;;;;;26.72;42.31;100032.13;5106504;28;20070;-63
2022/06/30 11:30:29;;;;;;;8.15;2.70;;;;;;;26.84;43.79;100027.88;5110548;28;20046;-64
2022/06/30 11:33:33;;;;;;;6.53;2.90;;;;;;;26.84;43.77;100033.22;5110801;28;20069;-70
2022/06/30 11:36:40;;;;;;;3.95;2.58;;;;;;;26.79;42.08;100025.75;5110926;28;20068;-65
2022/06/30 11:39:44;;;;;;;4.95;2.78;;;;;;;27.00;42.72;100024.03;5110923;28;20122;-71
2022/06/30 11:42:49;;;;;;;7.28;2.88;;;;;;;27.16;43.68;100017.50;5111302;28;20047;-66
2022/06/30 11:46:05;;;;;;;8.60;2.88;;;;;;;27.05;44.37;100016.19;5110943;28;20091;-69
2022/06/30 11:49:08;;;;;;;7.65;2.90;;;;;;;27.24;42.53;100022.69;5110419;28;20042;-70
2022/06/30 11:52:15;;;;;;;8.35;2.38;;;;;;;27.12;41.26;100020.56;5111714;28;20128;-66
2022/06/30 11:55:23;;;;;;;3.72;2.30;;;;;;;27.00;42.08;100008.75;5112872;28;20079;-67
2022/06/30 11:58:28;;;;;;;4.28;2.50;;;;;;;27.16;42.43;100014.84;5112301;28;20090;-67
2022/06/30 12:01:32;;;;;;;7.60;2.60;;;;;;;27.03;42.21;100010.22;5092033;28;20043;-67
2022/06/30 12:04:38;;;;;;;4.05;2.38;;;;;;;26.90;42.47;100006.44;5091578;28;20042;-70
2022/06/30 12:07:44;;;;;;;4.40;2.45;;;;;;;26.96;41.71;99998.59;5091528;28;20043;-68
2022/06/30 12:10:48;;;;;;;6.07;2.75;;;;;;;27.12;42.47;99993.72;5091455;28;20074;-68
2022/06/30 12:13:54;;;;;;;3.95;2.00;;;;;;;27.09;44.32;99983.41;5100629;28;20092;-68
2022/06/30 12:16:58;;;;;;;6.45;2.58;;;;;;;27.18;42.65;99985.91;5110349;28;20188;-65
2022/06/30 12:20:05;;;;;;;5.07;2.45;;;;;;;27.38;44.06;99986.81;5110711;28;20562;-66
2022/06/30 12:23:09;;;;;;;4.18;2.58;;;;;;;27.47;41.55;99974.00;5109295;28;20042;-67
2022/06/30 12:26:14;;;;;;;8.77;2.50;;;;;;;27.53;42.45;99973.19;5110730;28;20054;-66
2022/06/30 12:29:19;;;;;;;4.47;2.85;;;;;;;27.95;41.13;99977.41;5109108;28;20056;-66
2022/06/30 12:32:23;;;;;;;6.15;2.33;;;;;;;27.91;41.83;99968.09;5109771;28;20149;-66
2022/06/30 12:35:32;;;;;;;5.13;2.85;;;;;;;28.08;42.33;99976.59;5109623;28;20127;-66
2022/06/30 12:38:35;;;;;;;6.97;3.38;;;;;;;28.30;41.70;99966.41;5109962;28;20043;-66
2022/06/30 12:41:39;;;;;;;5.78;2.88;;;;;;;28.20;41.81;99968.69;5108478;28;20055;-65
2022/06/30 12:44:43;;;;;;;3.88;2.63;;;;;;;28.23;42.59;99973.66;5109240;28;20180;-65
2022/06/30 12:47:47;;;;;;;5.93;2.75;;;;;;;28.21;42.03;99962.31;5109869;28;20092;-65
2022/06/30 12:50:51;;;;;;;7.28;2.80;;;;;;;28.46;39.62;99966.00;5107154;28;20069;-66
2022/06/30 12:53:59;;;;;;;4.93;2.67;;;;;;;28.81;39.62;99954.91;5107871;28;20046;-67
2022/06/30 12:57:05;;;;;;;3.83;2.42;;;;;;;28.67;40.61;99954.13;5108506;28;20046;-66
2022/06/30 13:00:11;;;;;;;7.80;2.45;;;;;;;29.07;38.37;99951.31;5109285;28;20436;-65
2022/06/30 13:03:14;;;;;;;4.05;2.80;;;;;;;29.01;38.32;99948.66;5110303;28;20070;-66
2022/06/30 13:06:22;;;;;;;4.85;2.60;;;;;;;29.33;38.64;99947.66;5109579;28;20569;-65
2022/06/30 13:09:36;;;;;;;4.22;2.45;;;;;;;29.61;37.26;99949.13;5104774;28;20057;-66
2022/06/30 13:12:43;;;;;;;5.20;2.50;;;;;;;29.74;37.34;99943.66;5096818;28;20054;-66
2022/06/30 13:15:54;;;;;;;4.07;2.70;;;;;;;29.88;37.92;99929.00;5107827;28;20058;-66
2022/06/30 13:19:07;;;;;;;4.35;2.38;;;;;;;30.06;37.20;99919.31;5108976;28;20450;-65
2022/06/30 13:22:12;;;;;;;4.40;2.78;;;;;;;30.08;38.40;99925.31;5104544;28;20031;-66
2022/06/30 13:25:16;;;;;;;4.47;2.53;;;;;;;30.03;36.56;99919.78;5104300;28;20131;-67
2022/06/30 13:28:20;;;;;;;6.68;2.92;;;;;;;30.39;36.99;99907.38;5107704;28;20092;-67
2022/06/30 13:31:24;;;;;;;6.35;3.15;;;;;;;30.21;37.18;99900.94;5108742;28;20038;-67
2022/06/30 13:34:29;;;;;;;12.95;2.60;;;;;;;30.62;37.29;99896.72;5106681;28;20093;-66
2022/06/30 13:37:34;;;;;;;4.40;2.55;;;;;;;30.87;36.91;99893.13;5107213;28;20046;-66
2022/06/30 13:40:40;;;;;;;4.00;2.78;;;;;;;30.89;35.32;99891.84;5105411;28;20081;-66
2022/06/30 13:44:05;;;;;;;9.82;3.08;;;;;;;31.04;34.98;99888.72;5101738;28;20120;-67
2022/06/30 13:47:10;;;;;;;5.70;2.80;;;;;;;31.12;34.84;99882.19;5107244;28;20066;-68
2022/06/30 13:50:14;;;;;;;3.85;2.60;;;;;;;31.47;34.45;99887.69;5108753;28;20092;-67
2022/06/30 13:53:17;;;;;;;6.97;3.35;;;;;;;30.51;36.59;99881.31;5107137;28;20127;-67
2022/06/30 13:56:24;;;;;;;4.53;2.53;;;;;;;30.76;36.48;99882.03;5108370;28;20069;-67
2022/06/30 13:59:30;;;;;;;7.93;2.88;;;;;;;31.80;35.10;99878.19;5107327;28;20561;-67
2022/06/30 14:02:34;;;;;;;7.82;3.28;;;;;;;30.96;36.25;99875.56;5087409;28;20100;-66
2022/06/30 14:05:38;;;;;;;4.80;2.67;;;;;;;32.27;33.46;99868.16;5088963;28;20039;-66
2022/06/30 14:08:41;;;;;;;8.02;3.03;;;;;;;33.27;31.86;99874.16;5107412;28;20050;-65
2022/06/30 14:11:47;;;;;;;5.55;2.80;;;;;;;33.64;29.75;99868.28;5109765;28;20170;-66
2022/06/30 14:14:53;;;;;;;4.90;2.63;;;;;;;34.38;28.41;99857.94;5108960;28;20050;-68
2022/06/30 14:17:56;;;;;;;8.85;3.15;;;;;;;35.32;28.16;99853.19;5109135;28;20079;-68
2022/06/30 14:21:02;;;;;;;5.65;3.10;;;;;;;37.76;24.42;99838.78;5108952;28;20046;-67
2022/06/30 14:24:06;;;;;;;11.75;2.90;;;;;;;39.41;23.26;99828.56;5100785;28;20090;-68
2022/06/30 14:27:10;;;;;;;7.45;2.70;;;;;;;38.55;22.68;99842.59;5088669;28;20051;-67
2022/06/30 14:30:14;;;;;;;4.45;2.83;;;;;;;36.25;25.11;99853.56;5088686;28;20109;-66
2022/06/30 14:33:17;;;;;;;10.02;2.90;;;;;;;36.72;24.28;99846.38;5088810;28;20110;-66
2022/06/30 14:36:20;;;;;;;5.45;2.80;;;;;;;40.29;20.42;99842.97;5095041;28;20461;-65
2022/06/30 14:39:24;;;;;;;7.25;2.85;;;;;;;39.21;20.59;99835.03;5109167;28;20206;-65
2022/06/30 14:45:50;;;;;;;3.42;2.40;;;;;;;42.00;18.10;99831.41;5109936;28;20047;-67